Time;durP1;ratioP1;P1;durP2;ratioP2;P2;SDS_P1;SDS_P2;PMS_P1;PMS_P2;Temp;Humidity;BMP_temperature;BMP_pressure;BME280_temperature;BME280_humidity;BME280_pressure;Samples;Min_cycle;Max_cycle;Signal;HPM_P1;HPM_P2
2022/09/26 00:01:38;;;;;;;18.35;13.98;;;22.60;65.50;;;;;;5073723;28;20027;-82
2022/09/26 00:04:25;;;;;;;19.65;14.43;;;22.60;65.30;;;;;;5055686;28;20024;-82
2022/09/26 00:06:53;;;;;;;18.95;13.75;;;22.70;64.90;;;;;;5073378;28;20025;-83
2022/09/26 00:09:19;;;;;;;18.67;14.23;;;22.60;65.40;;;;;;5068075;28;20036;-81
2022/09/26 00:11:45;;;;;;;18.65;13.63;;;22.60;65.70;;;;;;5055551;28;20106;-81
2022/09/26 00:14:15;;;;;;;17.00;12.30;;;22.60;65.50;;;;;;5055536;28;20365;-81
2022/09/26 00:16:40;;;;;;;14.77;11.30;;;22.60;65.10;;;;;;5055312;28;20103;-80
2022/09/26 00:19:07;;;;;;;20.95;14.85;;;22.50;65.70;;;;;;5055659;28;20036;-81
2022/09/26 00:21:34;;;;;;;16.10;11.80;;;22.40;66.10;;;;;;5072597;28;20430;-81
2022/09/26 00:24:00;;;;;;;14.65;11.95;;;22.40;65.70;;;;;;5073326;28;20383;-81
2022/09/26 00:26:29;;;;;;;18.88;14.63;;;22.20;66.60;;;;;;5073297;28;20020;-82
2022/09/26 00:28:55;;;;;;;13.52;11.18;;;22.20;66.80;;;;;;5055582;28;20020;-80
2022/09/26 00:31:24;;;;;;;13.52;11.35;;;22.10;66.90;;;;;;5054465;28;20501;-80
2022/09/26 00:33:50;;;;;;;13.55;10.93;;;21.80;67.50;;;;;;5055230;28;20027;-81
2022/09/26 00:36:16;;;;;;;13.02;11.02;;;21.10;69.30;;;;;;5055395;28;20071;-81
2022/09/26 00:38:42;;;;;;;17.15;13.73;;;20.70;70.90;;;;;;5055136;28;20060;-81
2022/09/26 00:41:09;;;;;;;19.08;14.00;;;20.90;71.10;;;;;;5055400;28;20096;-81
2022/09/26 00:43:39;;;;;;;20.85;14.90;;;21.30;69.60;;;;;;5051461;28;20032;-81
2022/09/26 00:46:31;;;;;;;21.02;14.98;;;21.70;68.60;;;;;;5056971;28;20029;-81
2022/09/26 00:49:06;;;;;;;16.45;12.90;;;21.90;67.60;;;;;;5056935;28;20049;-81
2022/09/26 00:51:35;;;;;;;22.17;15.20;;;22.00;67.40;;;;;;5039538;28;20068;-82
2022/09/26 00:54:03;;;;;;;17.48;14.07;;;21.90;67.60;;;;;;5057083;28;20053;-81
2022/09/26 00:56:34;;;;;;;18.45;14.38;;;22.10;67.60;;;;;;5039208;28;20032;-82
2022/09/26 00:59:10;;;;;;;19.02;15.27;;;22.30;66.40;;;;;;5038948;28;20037;-81
2022/09/26 01:01:36;;;;;;;20.25;15.13;;;22.40;66.20;;;;;;5060024;28;20013;-82
2022/09/26 01:04:03;;;;;;;19.67;15.30;;;22.50;66.10;;;;;;5075924;28;20036;-81
2022/09/26 01:06:30;;;;;;;21.85;15.95;;;22.50;65.90;;;;;;5076954;28;20103;-81
2022/09/26 01:08:59;;;;;;;25.08;17.60;;;22.60;65.70;;;;;;5059044;28;20024;-81
2022/09/26 01:11:26;;;;;;;17.13;14.10;;;22.70;65.50;;;;;;5058608;28;20029;-80
2022/09/26 01:13:56;;;;;;;16.67;13.30;;;22.70;65.30;;;;;;5075979;28;20024;-80
2022/09/26 01:16:21;;;;;;;18.60;14.52;;;22.10;66.80;;;;;;5076162;28;20037;-81
2022/09/26 01:18:47;;;;;;;19.38;14.45;;;21.90;67.50;;;;;;5058405;28;20059;-81
2022/09/26 01:21:50;;;;;;;17.90;14.05;;;21.90;67.20;;;;;;5058872;28;20042;-82
2022/09/26 01:24:43;;;;;;;22.48;15.65;;;22.10;67.10;;;;;;5074961;28;20016;-82
2022/09/26 01:27:28;;;;;;;20.13;15.60;;;22.20;66.50;;;;;;5038520;28;20495;-81
2022/09/26 01:30:10;;;;;;;20.13;15.13;;;22.40;66.20;;;;;;5038713;28;20021;-82
2022/09/26 01:32:48;;;;;;;21.90;15.75;;;22.50;65.50;;;;;;5056492;28;20353;-81
2022/09/26 01:35:41;;;;;;;22.08;15.65;;;22.50;65.60;;;;;;5038868;28;20479;-82
2022/09/26 01:38:32;;;;;;;22.75;15.77;;;22.50;65.50;;;;;;5054955;28;20546;-82
2022/09/26 01:41:39;;;;;;;24.67;17.23;;;22.50;65.60;;;;;;5038577;28;20033;-82
2022/09/26 01:44:45;;;;;;;24.17;16.50;;;22.50;65.50;;;;;;5010993;28;20290;-81
2022/09/26 01:47:29;;;;;;;17.98;14.32;;;22.50;65.60;;;;;;4994928;28;20038;-82
2022/09/26 01:50:15;;;;;;;23.25;16.42;;;22.50;65.80;;;;;;4961122;28;20490;-82
2022/09/26 01:53:02;;;;;;;21.17;15.75;;;22.50;65.80;;;;;;4978310;28;20033;-82
2022/09/26 01:55:30;;;;;;;26.02;16.60;;;22.50;65.60;;;;;;4978159;28;20038;-81
2022/09/26 01:58:05;;;;;;;22.83;16.70;;;22.50;65.70;;;;;;4994912;28;20033;-82
2022/09/26 02:00:34;;;;;;;22.65;16.17;;;22.50;65.70;;;;;;4994278;28;20097;-82
2022/09/26 02:03:01;;;;;;;22.92;16.45;;;22.50;65.50;;;;;;4978129;28;20022;-82
2022/09/26 02:05:51;;;;;;;24.67;17.67;;;22.60;65.50;;;;;;4978135;28;20484;-82
2022/09/26 02:08:25;;;;;;;19.92;15.50;;;22.50;65.40;;;;;;5010412;28;20034;-81
2022/09/26 02:11:00;;;;;;;25.40;17.25;;;22.50;65.80;;;;;;4978227;28;20129;-81
2022/09/26 02:13:33;;;;;;;28.33;18.95;;;22.40;65.70;;;;;;4994710;28;20030;-80
2022/09/26 02:16:09;;;;;;;26.13;16.98;;;22.50;65.50;;;;;;4978191;28;20026;-81
2022/09/26 02:18:41;;;;;;;26.73;18.85;;;22.50;65.50;;;;;;5000772;28;20149;-81
2022/09/26 02:21:17;;;;;;;25.48;18.23;;;22.50;65.30;;;;;;5037636;28;20063;-81
2022/09/26 02:23:43;;;;;;;34.70;21.25;;;22.60;65.30;;;;;;5037786;28;20025;-81
2022/09/26 02:26:09;;;;;;;26.02;19.23;;;22.60;65.40;;;;;;5037667;28;20373;-81
2022/09/26 02:28:35;;;;;;;26.42;19.55;;;22.60;65.10;;;;;;5037960;28;20357;-81
2022/09/26 02:31:04;;;;;;;29.60;20.08;;;22.60;65.30;;;;;;5037346;28;20025;-82
2022/09/26 02:33:30;;;;;;;25.80;19.27;;;22.60;65.30;;;;;;5055355;28;20017;-81
2022/09/26 02:35:56;;;;;;;28.23;19.45;;;22.60;65.20;;;;;;5037516;28;20083;-83
2022/09/26 02:38:28;;;;;;;26.08;18.80;;;22.60;65.20;;;;;;5055374;28;20100;-81
2022/09/26 02:41:27;;;;;;;26.48;19.08;;;22.60;65.30;;;;;;5037183;28;20040;-80
2022/09/26 02:44:24;;;;;;;21.17;16.80;;;22.50;65.00;;;;;;5036886;28;20048;-80
2022/09/26 02:47:30;;;;;;;24.67;18.23;;;22.00;66.60;;;;;;5036781;28;20029;-81
2022/09/26 02:50:07;;;;;;;20.63;16.65;;;21.60;68.00;;;;;;5036450;28;20048;-80
2022/09/26 02:53:07;;;;;;;22.27;17.27;;;21.30;68.00;;;;;;5054878;28;20028;-82
2022/09/26 02:56:08;;;;;;;24.70;19.17;;;20.90;68.70;;;;;;5050361;28;20036;-81
2022/09/26 02:58:54;;;;;;;26.25;21.00;;;20.70;69.80;;;;;;5013041;28;20088;-84
2022/09/26 03:01:37;;;;;;;26.20;20.73;;;21.10;68.90;;;;;;4996797;28;20088;-84
2022/09/26 03:04:10;;;;;;;24.15;19.33;;;21.40;67.60;;;;;;4996639;28;20026;-80
2022/09/26 03:06:42;;;;;;;22.73;17.80;;;21.60;66.70;;;;;;5012334;28;20544;-80
2022/09/26 03:09:09;;;;;;;22.55;17.40;;;21.60;66.50;;;;;;5012788;28;20038;-82
2022/09/26 03:11:35;;;;;;;25.83;19.77;;;21.00;68.30;;;;;;5012620;28;20109;-83
2022/09/26 03:14:02;;;;;;;26.55;20.42;;;20.40;70.40;;;;;;4996823;28;20034;-82
2022/09/26 03:16:33;;;;;;;26.33;20.40;;;20.50;70.10;;;;;;5013076;28;20603;-83
2022/09/26 03:19:13;;;;;;;22.65;17.38;;;21.00;68.90;;;;;;4992563;28;20524;-80
2022/09/26 03:21:39;;;;;;;28.17;20.92;;;21.10;68.20;;;;;;4993286;28;20547;-82
2022/09/26 03:24:06;;;;;;;31.35;22.38;;;21.20;68.60;;;;;;4976746;28;20030;-82
2022/09/26 03:26:33;;;;;;;25.73;20.85;;;21.40;68.00;;;;;;4993258;28;20091;-82
2022/09/26 03:28:58;;;;;;;27.50;21.90;;;21.60;67.30;;;;;;4998277;28;20069;-81
2022/09/26 03:31:24;;;;;;;29.38;21.25;;;21.70;66.90;;;;;;5012437;28;20064;-81
2022/09/26 03:33:51;;;;;;;25.13;20.10;;;21.90;66.50;;;;;;5012539;28;20054;-83
2022/09/26 03:36:17;;;;;;;30.75;22.95;;;22.00;66.10;;;;;;5054792;28;20383;-82
2022/09/26 03:38:43;;;;;;;26.98;21.60;;;22.00;65.90;;;;;;5073758;28;20024;-84
2022/09/26 03:41:08;;;;;;;28.38;21.90;;;22.10;65.60;;;;;;5056665;28;20090;-85
2022/09/26 03:43:35;;;;;;;29.98;23.08;;;22.00;65.90;;;;;;5056241;28;20020;-84
2022/09/26 03:46:06;;;;;;;31.25;24.13;;;22.00;65.60;;;;;;5046438;28;20092;-84
2022/09/26 03:48:32;;;;;;;23.92;20.50;;;22.00;65.80;;;;;;5035989;28;20147;-82
2022/09/26 03:51:03;;;;;;;34.20;24.83;;;21.90;65.90;;;;;;5054229;28;20029;-83
2022/09/26 03:53:37;;;;;;;30.17;23.17;;;21.70;66.90;;;;;;5036233;28;20032;-82
2022/09/26 03:56:11;;;;;;;31.08;22.60;;;21.80;66.70;;;;;;5045323;28;20024;-82
2022/09/26 03:58:38;;;;;;;34.05;24.45;;;21.80;66.20;;;;;;5073782;28;20020;-81
2022/09/26 04:01:05;;;;;;;25.60;20.52;;;21.90;66.10;;;;;;5055676;28;20035;-82
2022/09/26 04:03:41;;;;;;;34.47;24.17;;;22.00;66.00;;;;;;5055852;28;20135;-81
2022/09/26 04:06:08;;;;;;;26.90;21.80;;;21.70;66.70;;;;;;5055617;28;20033;-81
2022/09/26 04:08:37;;;;;;;31.52;24.55;;;21.60;67.20;;;;;;5054592;28;20074;-80
2022/09/26 04:11:05;;;;;;;26.43;21.30;;;21.10;68.70;;;;;;5073572;28;20059;-82
2022/09/26 04:13:32;;;;;;;27.95;21.25;;;20.80;69.20;;;;;;5073481;28;20258;-80
2022/09/26 04:15:59;;;;;;;34.17;26.38;;;20.90;68.90;;;;;;5054932;28;20032;-81
2022/09/26 04:18:26;;;;;;;32.80;24.88;;;21.10;68.80;;;;;;5050278;28;20025;-81
2022/09/26 04:21:04;;;;;;;34.25;25.05;;;21.30;68.00;;;;;;5055121;28;20089;-81
2022/09/26 04:23:34;;;;;;;34.20;25.80;;;21.50;67.50;;;;;;5071368;28;20028;-80
2022/09/26 04:26:17;;;;;;;29.08;23.63;;;21.70;66.90;;;;;;5054752;28;20075;-80
2022/09/26 04:28:43;;;;;;;30.45;23.55;;;21.70;66.70;;;;;;5046597;28;20369;-80
2022/09/26 04:31:09;;;;;;;29.08;23.30;;;21.20;68.20;;;;;;5054489;28;20046;-85
2022/09/26 04:33:38;;;;;;;26.85;21.75;;;20.90;68.30;;;;;;5055004;28;20016;-81
2022/09/26 04:36:06;;;;;;;26.48;21.42;;;20.80;68.50;;;;;;5055398;28;20430;-84
2022/09/26 04:38:32;;;;;;;36.72;26.60;;;20.40;70.00;;;;;;5073033;28;20075;-83
2022/09/26 04:41:05;;;;;;;40.15;28.30;;;20.40;70.80;;;;;;5071878;28;20047;-81
2022/09/26 04:43:31;;;;;;;29.25;23.35;;;20.70;69.80;;;;;;5054990;28;20021;-80
2022/09/26 04:45:56;;;;;;;30.85;22.48;;;20.60;69.30;;;;;;5054694;28;20035;-83
2022/09/26 04:48:23;;;;;;;32.15;24.85;;;20.00;71.00;;;;;;5053217;28;20054;-82
2022/09/26 04:50:49;;;;;;;36.47;26.58;;;19.80;72.70;;;;;;5053613;28;20025;-80
2022/09/26 04:53:18;;;;;;;37.53;26.83;;;19.90;72.60;;;;;;5070320;28;20028;-80
2022/09/26 04:55:47;;;;;;;47.13;30.95;;;20.40;71.20;;;;;;5034923;28;20021;-81
2022/09/26 04:58:15;;;;;;;42.47;29.35;;;20.70;70.10;;;;;;5066132;28;20532;-82
2022/09/26 05:00:46;;;;;;;30.90;24.05;;;21.00;69.60;;;;;;5072763;28;20367;-81
2022/09/26 05:03:13;;;;;;;41.97;29.98;;;21.00;68.60;;;;;;5054543;28;20379;-82
2022/09/26 05:05:40;;;;;;;31.73;25.63;;;21.10;69.00;;;;;;5054361;28;20107;-81
2022/09/26 05:08:08;;;;;;;30.75;24.35;;;21.20;68.60;;;;;;5053952;28;20025;-80
2022/09/26 05:10:33;;;;;;;49.42;30.02;;;21.00;68.90;;;;;;5052018;28;20147;-82
2022/09/26 05:12:59;;;;;;;32.50;25.58;;;21.00;69.60;;;;;;5072530;28;21438;-81
2022/09/26 05:15:25;;;;;;;29.08;23.65;;;21.10;68.40;;;;;;5072171;28;20031;-80
2022/09/26 05:17:58;;;;;;;31.45;24.50;;;20.80;69.20;;;;;;5052459;28;20115;-78
2022/09/26 05:20:28;;;;;;;33.42;24.50;;;20.20;71.10;;;;;;5053457;28;20032;-79
2022/09/26 05:22:57;;;;;;;35.80;26.75;;;20.20;71.70;;;;;;5049511;28;20016;-79
2022/09/26 05:28:08;;;;;;;51.00;31.67;;;20.70;70.50;;;;;;5072427;28;20086;-78
2022/09/26 05:30:34;;;;;;;41.47;29.58;;;21.00;69.70;;;;;;5072237;28;20395;-79
2022/09/26 05:33:00;;;;;;;41.47;29.00;;;21.10;69.30;;;;;;5076140;28;20482;-81
2022/09/26 05:35:26;;;;;;;40.33;28.17;;;21.30;68.90;;;;;;5076117;28;20078;-82
2022/09/26 05:38:02;;;;;;;34.47;26.60;;;21.50;68.10;;;;;;5076059;28;20021;-79
2022/09/26 05:43:12;;;;;;;29.20;23.77;;;21.70;67.20;;;;;;5076228;28;20089;-80
2022/09/26 05:45:37;;;;;;;41.97;29.27;;;21.20;68.30;;;;;;5057730;28;20032;-80
2022/09/26 05:48:04;;;;;;;44.50;30.35;;;21.00;69.50;;;;;;5073982;28;20480;-79
2022/09/26 05:50:30;;;;;;;43.55;30.38;;;21.20;68.40;;;;;;5074820;28;20032;-80
2022/09/26 05:53:00;;;;;;;46.30;30.48;;;21.60;67.80;;;;;;5057710;28;20383;-79
2022/09/26 05:55:26;;;;;;;39.00;28.33;;;21.80;67.20;;;;;;4708167;28;9999609;-82
2022/09/26 05:57:54;;;;;;;46.25;30.67;;;22.00;66.70;;;;;;5057637;28;20028;-86
2022/09/26 06:00:20;;;;;;;52.03;34.17;;;22.10;66.40;;;;;;5057655;28;20036;-83
2022/09/26 06:02:52;;;;;;;30.88;23.92;;;22.20;66.20;;;;;;5056392;28;20098;-81
2022/09/26 06:05:18;;;;;;;36.00;26.15;;;21.90;66.70;;;;;;5056981;28;20111;-83
2022/09/26 06:07:44;;;;;;;36.42;26.85;;;21.40;67.70;;;;;;5056986;28;20024;-80
2022/09/26 06:10:10;;;;;;;39.78;28.00;;;21.40;68.30;;;;;;5056058;28;20028;-81
2022/09/26 06:12:36;;;;;;;32.03;23.48;;;21.60;67.80;;;;;;5073668;28;20360;-80
2022/09/26 06:15:04;;;;;;;39.40;26.83;;;21.60;67.80;;;;;;5056561;28;20073;-81
2022/09/26 06:17:29;;;;;;;28.20;22.65;;;20.90;69.60;;;;;;5056052;28;20036;-78
2022/09/26 06:19:55;;;;;;;40.83;28.50;;;20.70;69.90;;;;;;5054701;28;20437;-79
2022/09/26 06:22:21;;;;;;;42.15;29.50;;;20.90;70.00;;;;;;5055480;28;20032;-81
2022/09/26 06:24:47;;;;;;;40.65;28.80;;;21.30;68.90;;;;;;5055424;28;20017;-80
2022/09/26 06:27:12;;;;;;;43.08;28.98;;;21.50;68.10;;;;;;5073352;28;20048;-81
2022/09/26 06:29:38;;;;;;;40.13;28.63;;;21.70;67.60;;;;;;5055474;28;20056;-80
2022/09/26 06:32:03;;;;;;;33.22;24.85;;;21.80;67.40;;;;;;5067332;28;20025;-82
2022/09/26 06:34:29;;;;;;;28.45;23.17;;;21.70;67.50;;;;;;5053326;28;20725;-80
2022/09/26 06:36:55;;;;;;;34.35;24.90;;;21.60;67.80;;;;;;5055812;28;20119;-81
2022/09/26 06:39:20;;;;;;;27.30;21.95;;;21.60;67.80;;;;;;5055394;28;20036;-79
2022/09/26 06:41:46;;;;;;;26.55;21.45;;;21.70;67.50;;;;;;5054144;28;20379;-80
2022/09/26 06:44:12;;;;;;;32.90;24.70;;;21.70;67.10;;;;;;5055169;28;20058;-82
2022/09/26 06:46:37;;;;;;;30.77;23.98;;;21.60;67.90;;;;;;5072853;28;20028;-82
2022/09/26 06:49:05;;;;;;;36.75;25.95;;;21.70;67.60;;;;;;5056189;28;20127;-83
2022/09/26 06:51:30;;;;;;;33.67;24.95;;;21.90;67.00;;;;;;5052524;28;20371;-81
2022/09/26 06:53:56;;;;;;;33.20;24.38;;;22.10;66.70;;;;;;5047192;28;20024;-82
2022/09/26 06:56:22;;;;;;;30.65;23.38;;;22.00;66.50;;;;;;5054436;28;20026;-82
2022/09/26 06:58:48;;;;;;;39.25;23.38;;;22.10;66.50;;;;;;5045220;28;20021;-80
2022/09/26 07:01:14;;;;;;;27.02;21.50;;;22.10;66.10;;;;;;5072731;28;20037;-80
2022/09/26 07:03:45;;;;;;;32.45;23.85;;;22.00;66.40;;;;;;5053539;28;20082;-79
2022/09/26 07:06:10;;;;;;;26.65;21.27;;;21.70;68.00;;;;;;5054059;28;20044;-82
2022/09/26 07:08:36;;;;;;;31.13;24.08;;;21.50;68.10;;;;;;5054084;28;20041;-81
2022/09/26 07:11:02;;;;;;;28.98;21.83;;;21.60;68.30;;;;;;5072044;28;20116;-83
2022/09/26 07:13:28;;;;;;;30.65;21.77;;;21.70;67.70;;;;;;5054699;28;20025;-82
2022/09/26 07:15:57;;;;;;;23.15;19.75;;;21.90;67.50;;;;;;5051755;28;20033;-80
2022/09/26 07:18:23;;;;;;;22.63;18.65;;;22.00;67.00;;;;;;5049923;28;20036;-82
2022/09/26 07:20:49;;;;;;;23.00;18.75;;;21.70;68.00;;;;;;5053923;28;20044;-80
2022/09/26 07:23:15;;;;;;;21.45;17.98;;;21.30;68.20;;;;;;5054666;28;20532;-82
2022/09/26 07:25:44;;;;;;;22.08;18.17;;;20.90;69.30;;;;;;5063710;28;20024;-83
2022/09/26 07:28:11;;;;;;;26.17;20.70;;;20.90;70.30;;;;;;5042448;28;20025;-84
2022/09/26 07:30:36;;;;;;;25.55;19.95;;;21.30;69.40;;;;;;5053484;28;20082;-83
2022/09/26 07:33:03;;;;;;;31.55;22.73;;;21.50;68.90;;;;;;5055860;28;20067;-81
2022/09/26 07:35:34;;;;;;;27.73;22.48;;;21.60;68.60;;;;;;5072852;28;20032;-83
2022/09/26 07:38:00;;;;;;;26.05;21.05;;;21.90;67.80;;;;;;5056365;28;20372;-82
2022/09/26 07:40:26;;;;;;;20.60;17.48;;;22.10;67.20;;;;;;5069578;28;20412;-82
2022/09/26 07:42:52;;;;;;;27.25;20.73;;;22.30;66.50;;;;;;5055973;28;20028;-83
2022/09/26 07:50:09;;;;;;;25.42;20.05;;;21.90;67.70;;;;;;5056021;28;20028;-84
2022/09/26 07:50:56;;;;;;;30.17;21.00;;;22.30;66.80;;;;;;5075196;28;20063;-84
2022/09/26 07:53:24;;;;;;;29.98;20.60;;;22.50;66.40;;;;;;5055902;28;20020;-83
2022/09/26 07:56:05;;;;;;;23.58;18.55;;;22.70;65.80;;;;;;5056071;28;20032;-81
2022/09/26 07:58:39;;;;;;;20.98;17.15;;;22.80;65.30;;;;;;5055848;28;20034;-83
2022/09/26 08:01:06;;;;;;;24.88;19.42;;;22.80;65.40;;;;;;5056101;28;20878;-82
2022/09/26 08:03:32;;;;;;;35.97;24.33;;;22.80;65.70;;;;;;5056274;28;20486;-83
2022/09/26 08:05:59;;;;;;;21.20;17.85;;;22.90;65.20;;;;;;5056315;28;20028;-82
2022/09/26 08:08:25;;;;;;;25.30;19.25;;;23.00;65.00;;;;;;5074052;28;20029;-84
2022/09/26 08:10:51;;;;;;;25.77;21.27;;;22.80;65.50;;;;;;5056203;28;20111;-82
2022/09/26 08:13:17;;;;;;;25.00;19.33;;;22.60;66.30;;;;;;5055643;28;20115;-84
2022/09/26 08:15:43;;;;;;;40.90;25.27;;;22.70;65.80;;;;;;5055829;28;20052;-84
2022/09/26 08:18:08;;;;;;;27.90;20.95;;;22.80;65.20;;;;;;5073599;28;20475;-85
2022/09/26 08:20:34;;;;;;;25.63;19.58;;;23.00;64.90;;;;;;5055566;28;20037;-84
2022/09/26 08:23:02;;;;;;;29.10;22.27;;;23.00;64.80;;;;;;5055373;28;20360;-85
2022/09/26 08:25:27;;;;;;;32.42;22.77;;;23.10;64.80;;;;;;5073495;28;20033;-85
2022/09/26 08:27:57;;;;;;;26.80;19.08;;;23.10;64.70;;;;;;5055847;28;20112;-85
2022/09/26 08:30:24;;;;;;;29.77;21.13;;;23.20;64.70;;;;;;5055436;28;20025;-84
2022/09/26 08:32:55;;;;;;;27.80;20.73;;;23.20;64.90;;;;;;5055611;28;20024;-85
2022/09/26 08:35:21;;;;;;;26.00;18.45;;;23.20;65.10;;;;;;5055506;28;20033;-84
2022/09/26 08:37:46;;;;;;;28.48;20.20;;;23.30;64.90;;;;;;5055322;28;20031;-85
2022/09/26 08:40:13;;;;;;;23.10;18.08;;;23.50;64.70;;;;;;5055205;28;20060;-85
2022/09/26 08:43:10;;;;;;;25.00;19.67;;;23.60;64.60;;;;;;5055590;28;20471;-84
2022/09/26 08:49:16;;;;;;;26.20;20.23;;;23.60;64.60;;;;;;5073520;28;20140;-85
2022/09/26 08:51:46;;;;;;;40.88;24.95;;;23.50;65.00;;;;;;5054313;28;20036;-87
2022/09/26 08:54:34;;;;;;;36.03;22.98;;;23.30;64.60;;;;;;5055235;28;20467;-86
2022/09/26 08:57:20;;;;;;;27.60;19.80;;;23.10;65.20;;;;;;5054720;28;20041;-84
2022/09/26 08:59:48;;;;;;;26.98;19.73;;;23.00;66.20;;;;;;5055103;28;20033;-85
2022/09/26 09:02:25;;;;;;;24.73;17.90;;;23.00;67.10;;;;;;5055463;28;20028;-84
2022/09/26 09:04:58;;;;;;;30.75;20.75;;;22.90;67.30;;;;;;5073168;28;20033;-85
2022/09/26 09:07:25;;;;;;;33.40;21.58;;;22.70;67.70;;;;;;5059385;28;20493;-85
2022/09/26 09:09:55;;;;;;;24.23;18.27;;;22.80;67.60;;;;;;5059261;28;20028;-84
2022/09/26 09:12:33;;;;;;;26.10;18.40;;;23.00;66.80;;;;;;5058986;28;20116;-83
2022/09/26 09:14:58;;;;;;;32.85;21.33;;;22.90;68.30;;;;;;5077220;28;20028;-85
2022/09/26 09:17:36;;;;;;;29.45;20.65;;;22.90;68.50;;;;;;5076893;28;20024;-90
2022/09/26 09:20:13;;;;;;;32.65;20.85;;;23.10;67.60;;;;;;5059355;28;20039;-81
2022/09/26 09:22:45;;;;;;;28.92;18.77;;;23.10;68.20;;;;;;5076732;28;20486;-87
2022/09/26 09:25:39;;;;;;;26.38;18.58;;;23.20;67.10;;;;;;4364665;28;10000721;-85
2022/09/26 09:28:31;;;;;;;24.08;16.90;;;23.30;66.70;;;;;;5078171;28;20360;-83
2022/09/26 09:31:00;;;;;;;28.35;19.23;;;23.10;68.10;;;;;;5095497;28;20069;-88
2022/09/26 09:33:40;;;;;;;30.15;20.38;;;23.10;68.60;;;;;;5078608;28;20028;-84
2022/09/26 09:36:22;;;;;;;27.85;19.67;;;23.20;67.70;;;;;;5078638;28;20032;-86
2022/09/26 09:38:49;;;;;;;33.50;21.05;;;23.30;66.80;;;;;;5096420;28;20103;-84
2022/09/26 09:41:20;;;;;;;30.70;20.65;;;23.50;67.00;;;;;;5078876;28;20032;-83
2022/09/26 09:43:50;;;;;;;33.00;20.55;;;23.50;66.40;;;;;;5078375;28;20023;-83
2022/09/26 09:46:28;;;;;;;27.65;17.80;;;23.60;66.00;;;;;;5096252;28;20020;-82
2022/09/26 09:51:55;;;;;;;27.23;19.02;;;23.70;65.30;;;;;;5085244;27;1359664;-85
2022/09/26 09:54:40;;;;;;;32.22;21.10;;;23.50;66.90;;;;;;5111344;28;20032;-83
2022/09/26 09:57:20;;;;;;;23.83;17.50;;;23.50;66.90;;;;;;5111285;28;20031;-82
2022/09/26 09:59:49;;;;;;;42.17;38.25;;;23.80;66.40;;;;;;5092809;28;20494;-81
2022/09/26 10:03:00;;;;;;;25.40;17.40;;;23.90;65.20;;;;;;5092932;28;20111;-81
2022/09/26 10:05:28;;;;;;;;;;;24.00;65.70;;;;;;4992849;28;20038;-82
2022/09/26 10:07:56;;;;;;;23.45;17.80;;;24.30;66.20;;;;;;5009032;28;20401;-83
2022/09/26 10:10:45;;;;;;;21.98;15.75;;;24.40;66.30;;;;;;5008242;28;20042;-82
2022/09/26 10:13:11;;;;;;;20.35;14.82;;;24.40;66.10;;;;;;5008782;28;20568;-80
2022/09/26 10:15:43;;;;;;;21.85;16.42;;;24.20;66.20;;;;;;5008480;28;20121;-83
2022/09/26 10:18:17;;;;;;;19.15;14.75;;;24.10;66.50;;;;;;5008697;28;20054;-83
2022/09/26 10:20:56;;;;;;;22.77;16.02;;;24.20;65.80;;;;;;5008321;28;20037;-82
2022/09/26 10:23:28;;;;;;;18.00;13.98;;;24.30;65.30;;;;;;5008668;28;20048;-84
2022/09/26 10:26:02;;;;;;;18.77;13.73;;;24.50;64.70;;;;;;5008572;28;20030;-81
2022/09/26 10:28:54;;;;;;;15.10;12.45;;;24.30;65.10;;;;;;5008607;28;20482;-81
2022/09/26 10:31:38;;;;;;;17.23;13.25;;;24.40;65.50;;;;;;4991624;28;20529;-82
2022/09/26 10:34:26;;;;;;;19.95;15.02;;;24.40;65.50;;;;;;5008022;28;20069;-82
2022/09/26 10:36:52;;;;;;;18.02;14.48;;;24.30;64.90;;;;;;5008347;28;20045;-82
2022/09/26 10:42:19;;;;;;;17.20;14.10;;;24.30;65.60;;;;;;5110439;28;20046;-81
2022/09/26 10:44:47;;;;;;;17.95;13.25;;;24.50;65.60;;;;;;5109886;28;20088;-80
2022/09/26 10:47:15;;;;;;;16.75;12.07;;;24.70;64.80;;;;;;5091665;28;20035;-81
2022/09/26 10:49:55;;;;;;;19.23;12.73;;;24.80;64.30;;;;;;5110042;28;20501;-81
2022/09/26 10:52:34;;;;;;;16.98;12.13;;;24.70;64.60;;;;;;5109544;28;20036;-81
2022/09/26 10:55:03;;;;;;;13.80;11.15;;;24.70;63.60;;;;;;5091926;28;20023;-81
2022/09/26 10:57:50;;;;;;;12.48;10.52;;;24.90;63.80;;;;;;5091850;28;20024;-82
2022/09/26 11:00:38;;;;;;;16.50;12.63;;;24.90;64.00;;;;;;5109676;28;20080;-81
2022/09/26 11:03:07;;;;;;;15.50;12.02;;;25.10;64.00;;;;;;5077465;28;20355;-81
2022/09/26 11:05:58;;;;;;;13.35;11.10;;;25.20;63.30;;;;;;5077767;28;20024;-80
2022/09/26 11:08:52;;;;;;;12.25;9.80;;;25.00;62.90;;;;;;5090887;28;20379;-81
2022/09/26 11:11:20;;;;;;;11.82;9.85;;;24.80;62.70;;;;;;5089551;28;20055;-81
2022/09/26 11:13:55;;;;;;;11.85;9.30;;;24.70;63.70;;;;;;5089554;28;20032;-82
2022/09/26 11:16:21;;;;;;;12.05;9.23;;;24.60;64.40;;;;;;5089551;28;20020;-82
2022/09/26 11:18:50;;;;;;;12.57;9.85;;;24.40;64.20;;;;;;5090360;28;20056;-82
2022/09/26 11:21:40;;;;;;;10.63;8.68;;;24.30;64.20;;;;;;5089871;28;20107;-84
2022/09/26 11:24:44;;;;;;;13.57;9.95;;;24.20;65.60;;;;;;5089576;28;20079;-84
2022/09/26 11:27:37;;;;;;;10.85;8.85;;;24.40;65.20;;;;;;5089440;28;20082;-89
2022/09/26 11:30:21;;;;;;;11.32;8.65;;;24.70;64.60;;;;;;5091030;28;20017;-85
2022/09/26 11:32:52;;;;;;;10.48;8.45;;;24.60;64.60;;;;;;5090676;28;20031;-85
2022/09/26 11:35:52;;;;;;;11.43;8.95;;;24.70;63.90;;;;;;5089634;28;20163;-82
2022/09/26 11:38:45;;;;;;;10.85;8.80;;;25.00;64.20;;;;;;5089875;28;20111;-83
2022/09/26 11:41:15;;;;;;;9.43;7.80;;;25.10;63.60;;;;;;5090904;28;20097;-87
2022/09/26 11:44:16;;;;;;;10.23;8.13;;;25.10;63.40;;;;;;5090106;28;20028;-86
2022/09/26 11:47:02;;;;;;;9.75;7.63;;;25.10;63.90;;;;;;5090229;28;20024;-83
2022/09/26 11:49:50;;;;;;;8.95;7.13;;;25.30;63.00;;;;;;5091043;28;20360;-85
2022/09/26 11:52:42;;;;;;;8.98;7.00;;;24.90;63.90;;;;;;5090768;28;20146;-85
2022/09/26 11:55:39;;;;;;;8.88;6.93;;;24.70;63.70;;;;;;5091165;28;20024;-90
2022/09/26 11:58:17;;;;;;;25.63;13.55;;;24.70;63.90;;;;;;5090423;28;20021;-87
2022/09/26 12:00:54;;;;;;;13.38;11.80;;;25.10;63.80;;;;;;5090465;28;20021;-85
2022/09/26 12:03:46;;;;;;;10.55;8.77;;;25.20;63.40;;;;;;5089629;28;20024;-87
2022/09/26 12:06:43;;;;;;;9.40;7.10;;;25.30;63.30;;;;;;5090440;28;20028;-85
2022/09/26 12:09:44;;;;;;;8.95;6.88;;;25.10;63.40;;;;;;5088976;28;20032;-87
2022/09/26 12:12:10;;;;;;;;;;;25.30;63.30;;;;;;5090290;28;20073;-86
2022/09/26 12:15:04;;;;;;;7.38;6.18;;;25.40;63.30;;;;;;5090191;28;19908;-90
2022/09/26 12:17:48;;;;;;;7.93;6.35;;;25.40;63.30;;;;;;5089888;28;20036;-85
2022/09/26 12:20:29;;;;;;;7.07;5.43;;;25.20;62.20;;;;;;5076123;28;20017;-89
2022/09/26 12:23:03;;;;;;;8.20;6.18;;;24.70;61.60;;;;;;5076448;28;20024;-86
2022/09/26 12:25:33;;;;;;;9.27;6.53;;;24.40;62.60;;;;;;5075163;28;20028;-85
2022/09/26 12:28:20;;;;;;;8.68;6.13;;;24.60;63.20;;;;;;5075167;28;20032;-85
2022/09/26 12:31:07;;;;;;;7.97;6.65;;;24.90;62.50;;;;;;5075135;28;20115;-85
2022/09/26 12:33:39;;;;;;;8.80;6.90;;;25.10;62.80;;;;;;5074911;28;20399;-86
2022/09/26 12:36:12;;;;;;;7.93;7.05;;;24.90;62.70;;;;;;5075111;28;20463;-84
2022/09/26 12:39:08;;;;;;;7.40;5.93;;;24.90;62.80;;;;;;5075837;28;20028;-85
2022/09/26 12:42:05;;;;;;;9.65;6.43;;;25.20;63.00;;;;;;5070003;28;20038;-84
2022/09/26 12:44:49;;;;;;;8.00;6.50;;;25.30;62.10;;;;;;5074798;28;20029;-84
2022/09/26 12:47:35;;;;;;;8.20;6.20;;;25.50;61.60;;;;;;5075498;28;20107;-84
2022/09/26 12:50:35;;;;;;;9.23;6.88;;;25.50;61.80;;;;;;5074804;28;20027;-84
2022/09/26 12:53:30;;;;;;;7.30;6.05;;;25.30;61.60;;;;;;5074892;28;20056;-86
2022/09/26 12:55:58;;;;;;;9.45;6.43;;;25.30;61.70;;;;;;5056860;28;20047;-84
2022/09/26 12:59:09;;;;;;;8.82;6.85;;;25.30;61.80;;;;;;5057000;28;20526;-85
2022/09/26 13:01:48;;;;;;;9.63;7.10;;;25.30;61.50;;;;;;5073662;28;20040;-91
2022/09/26 13:04:44;;;;;;;8.07;6.93;;;25.00;62.00;;;;;;5056805;28;20127;-85
2022/09/26 13:07:26;;;;;;;7.60;6.10;;;25.10;62.50;;;;;;5056426;28;20293;-83
2022/09/26 13:10:23;;;;;;;8.38;6.50;;;25.20;62.20;;;;;;5056721;28;20437;-84
2022/09/26 13:13:21;;;;;;;8.48;6.47;;;25.30;62.10;;;;;;5072822;28;20037;-84
2022/09/26 13:16:11;;;;;;;9.25;6.95;;;25.30;62.20;;;;;;5056763;28;20044;-84
2022/09/26 13:18:50;;;;;;;9.55;8.18;;;25.30;62.10;;;;;;5056510;28;20024;-88
2022/09/26 13:21:25;;;;;;;7.15;6.15;;;25.20;61.80;;;;;;5057283;28;20028;-84
2022/09/26 13:23:59;;;;;;;8.25;6.30;;;25.20;62.00;;;;;;5056381;28;20024;-83